| time (UTC) | temp F | wind direction | speed MPH | gust MPH | rain 1hr in | rain 24hr in | rain mn in | humidity % | barometer mb |
| 20260506041552 | 41 | 133 | 4.0 | 13.0 | 0.00 | 0.00 | 0.00 | 77 | 1015.0 |
| 20260506040043 | 42 | 88 | 8.0 | 14.0 | 0.00 | 0.00 | 0.00 | 76 | 1015.0 |
| 20260506034546 | 41 | 96 | 5.0 | 12.0 | 0.00 | 0.00 | 0.00 | 77 | 1015.1 |
| 20260506033041 | 42 | 123 | 3.0 | 13.0 | 0.00 | 0.00 | 0.00 | 77 | 1015.2 |
| 20260506031539 | 41 | 86 | 4.0 | 10.0 | 0.00 | 0.00 | 0.00 | 77 | 1015.2 |
| 20260506030039 | 41 | 338 | 2.0 | 5.0 | 0.00 | 0.00 | 0.00 | 78 | 1015.2 |
| 20260506024537 | 42 | 72 | 2.0 | 7.0 | 0.00 | 0.00 | 0.00 | 76 | 1015.2 |
| 20260506023034 | 42 | 106 | 3.0 | 6.0 | 0.00 | 0.00 | 0.00 | 76 | 1015.2 |
| 20260506021541 | 42 | 103 | 3.0 | 8.0 | 0.00 | 0.00 | 0.00 | 77 | 1015.2 |
| 20260506020033 | 42 | 98 | 5.0 | 10.0 | 0.00 | 0.00 | 0.00 | 77 | 1015.2 |
| 20260506014532 | 42 | 123 | 3.0 | 10.0 | 0.00 | 0.00 | 0.00 | 78 | 1015.2 |
| 20260506013034 | 42 | 115 | 4.0 | 11.0 | 0.00 | 0.00 | 0.00 | 78 | 1015.2 |
| 20260506011553 | 42 | 79 | 5.0 | 10.0 | 0.00 | 0.00 | 0.00 | 77 | 1015.3 |
| 20260506010030 | 43 | 101 | 4.0 | 9.0 | 0.00 | 0.00 | 0.00 | 77 | 1015.4 |
| 20260506004540 | 42 | 88 | 5.0 | 13.0 | 0.00 | 0.00 | 0.00 | 78 | 1015.3 |
| 20260506003030 | 42 | 109 | 7.0 | 11.0 | 0.00 | 0.00 | 0.00 | 78 | 1015.3 |
| 20260506001525 | 43 | 92 | 5.0 | 10.0 | 0.00 | 0.00 | 0.00 | 78 | 1015.3 |
| 20260506000022 | 43 | 141 | 4.0 | 9.0 | 0.00 | 0.00 | 0.00 | 78 | 1015.3 |
| 20260505234521 | 43 | 84 | 4.0 | 8.0 | 0.00 | 0.00 | 0.00 | 78 | 1015.4 |
| 20260505233027 | 43 | 146 | 3.0 | 8.0 | 0.00 | 0.00 | 0.00 | 77 | 1015.4 |
| 20260505231520 | 44 | 86 | 7.0 | 9.0 | 0.00 | 0.00 | 0.00 | 77 | 1015.5 |
| 20260505230013 | 44 | 152 | 0.0 | 6.0 | 0.00 | 0.00 | 0.00 | 77 | 1015.6 |
| 20260505224512 | 44 | 97 | 2.0 | 9.0 | 0.00 | 0.00 | 0.00 | 77 | 1015.6 |
| 20260505223016 | 44 | 98 | 7.0 | 10.0 | 0.00 | 0.00 | 0.00 | 77 | 1015.5 |
| 20260505221511 | 44 | 123 | 7.0 | 11.0 | 0.00 | 0.00 | 0.00 | 77 | 1015.5 |
| 20260505220022 | 44 | 90 | 5.0 | 10.0 | 0.00 | 0.00 | 0.00 | 77 | 1015.4 |
| 20260505214609 | 44 | 88 | 4.0 | 9.0 | 0.00 | 0.00 | 0.00 | 77 | 1015.5 |
| 20260505213011 | 45 | 116 | 3.0 | 8.0 | 0.00 | 0.00 | 0.00 | 77 | 1015.4 |
| 20260505211507 | 45 | 128 | 3.0 | 7.0 | 0.00 | 0.00 | 0.00 | 77 | 1015.3 |
| 20260505210007 | 45 | 90 | 4.0 | 7.0 | 0.00 | 0.00 | 0.00 | 77 | 1015.2 |
| 20260505204505 | 45 | 134 | 2.0 | 6.0 | 0.00 | 0.00 | 0.00 | 77 | 1015.2 |
| 20260505203008 | 45 | 92 | 3.0 | 6.0 | 0.00 | 0.00 | 0.00 | 77 | 1015.2 |
| 20260505201504 | 45 | 137 | 1.0 | 9.0 | 0.00 | 0.00 | 0.00 | 77 | 1015.2 |
| 20260505200003 | 45 | 127 | 7.0 | 14.0 | 0.00 | 0.00 | 0.00 | 77 | 1015.1 |
| 20260505194503 | 46 | 121 | 6.0 | 13.0 | 0.00 | 0.00 | 0.00 | 77 | 1015.0 |
| 20260505193001 | 46 | 78 | 8.0 | 16.0 | 0.00 | 0.00 | 0.00 | 77 | 1014.9 |
| 20260505191501 | 46 | 86 | 6.0 | 14.0 | 0.00 | 0.00 | 0.00 | 76 | 1014.7 |
| 20260505190100 | 46 | 90 | 10.0 | 18.0 | 0.00 | 0.00 | 0.00 | 76 | 1014.7 |
| 20260505184600 | 47 | 83 | 8.0 | 15.0 | 0.00 | 0.00 | 0.00 | 75 | 1014.6 |
| 20260505183101 | 47 | 72 | 6.0 | 13.0 | 0.00 | 0.00 | 0.00 | 75 | 1014.6 |
| 20260505181607 | 48 | 73 | 9.0 | 17.0 | 0.00 | 0.00 | 0.00 | 75 | 1014.6 |
| 20260505180057 | 48 | 90 | 8.0 | 18.0 | 0.00 | 0.00 | 0.00 | 76 | 1014.4 |
| 20260505174557 | 49 | 82 | 11.0 | 19.0 | 0.00 | 0.00 | 0.00 | 76 | 1014.3 |
| 20260505173056 | 49 | 94 | 11.0 | 18.0 | 0.00 | 0.00 | 0.00 | 77 | 1014.3 |
| 20260505171556 | 50 | 90 | 7.0 | 13.0 | 0.00 | 0.00 | 0.00 | 76 | 1014.4 |
| 20260505170056 | 50 | 88 | 7.0 | 15.0 | 0.00 | 0.00 | 0.00 | 75 | 1014.4 |
| 20260505164601 | 50 | 88 | 7.0 | 13.0 | 0.00 | 0.00 | 0.00 | 75 | 1014.3 |
| 20260505163054 | 50 | 36 | 5.0 | 11.0 | 0.00 | 0.00 | 0.00 | 75 | 1014.2 |
| 20260505161557 | 50 | 92 | 4.0 | 12.0 | 0.00 | 0.00 | 0.00 | 76 | 1014.2 |
| 20260505153107 | 52 | 311 | 4.0 | 11.0 | 0.00 | 0.00 | 0.00 | 73 | 1014.1 |
| 20260505151551 | 52 | 297 | 5.0 | 10.0 | 0.00 | 0.00 | 0.00 | 72 | 1014.1 |
| 20260505124549 | 52 | 313 | 2.0 | 8.0 | 0.00 | 0.00 | 0.00 | 71 | 1014.2 |
| 20260505123046 | 52 | 306 | 4.0 | 11.0 | 0.00 | 0.00 | 0.00 | 72 | 1014.3 |
| 20260505121541 | 52 | 326 | 3.0 | 9.0 | 0.00 | 0.00 | 0.00 | 70 | 1014.3 |
| 20260505120049 | 51 | 346 | 4.0 | 12.0 | 0.00 | 0.00 | 0.00 | 71 | 1014.3 |
| 20260505114540 | 51 | 330 | 4.0 | 9.0 | 0.00 | 0.00 | 0.00 | 72 | 1014.3 |
| 20260505113045 | 51 | 337 | 4.0 | 11.0 | 0.00 | 0.00 | 0.00 | 72 | 1014.4 |
| 20260505111539 | 51 | 329 | 5.0 | 10.0 | 0.00 | 0.00 | 0.00 | 71 | 1014.3 |
| 20260505101534 | 50 | 310 | 6.0 | 10.0 | 0.00 | 0.00 | 0.00 | 68 | 1014.4 |
| 20260505100033 | 50 | 346 | 7.0 | 10.0 | 0.00 | 0.00 | 0.00 | 70 | 1014.5 |
| 20260505094534 | 49 | 301 | 6.0 | 12.0 | 0.00 | 0.00 | 0.00 | 70 | 1014.4 |
| 20260505093030 | 50 | 321 | 6.0 | 11.0 | 0.00 | 0.00 | 0.00 | 71 | 1014.5 |
| 20260505091526 | 49 | 17 | 5.0 | 9.0 | 0.00 | 0.00 | 0.00 | 73 | 1014.4 |
| 20260505090024 | 48 | 330 | 4.0 | 9.0 | 0.00 | 0.00 | 0.00 | 75 | 1014.3 |
| 20260505084540 | 48 | 5 | 3.0 | 9.0 | 0.00 | 0.00 | 0.00 | 77 | 1014.5 |
| 20260505083020 | 48 | 17 | 2.0 | 7.0 | 0.00 | 0.00 | 0.00 | 79 | 1014.5 |
| 20260505081519 | 47 | 333 | 4.0 | 10.0 | 0.00 | 0.00 | 0.00 | 81 | 1014.5 |
| 20260505080018 | 47 | 355 | 4.0 | 10.0 | 0.00 | 0.00 | 0.00 | 82 | 1014.5 |
| 20260505074517 | 47 | 350 | 3.0 | 11.0 | 0.00 | 0.00 | 0.00 | 82 | 1014.5 |
| 20260505073016 | 47 | 355 | 4.0 | 10.0 | 0.00 | 0.00 | 0.00 | 82 | 1014.4 |
| 20260505071519 | 47 | 312 | 7.0 | 11.0 | 0.00 | 0.00 | 0.00 | 82 | 1014.4 |
| 20260505070014 | 47 | 345 | 4.0 | 10.0 | 0.00 | 0.00 | 0.00 | 83 | 1014.4 |
| 20260505064517 | 47 | 360 | 4.0 | 8.0 | 0.00 | 0.00 | 0.00 | 85 | 1014.3 |
| 20260505063011 | 47 | 309 | 4.0 | 9.0 | 0.00 | 0.00 | 0.00 | 86 | 1014.3 |
| 20260505061510 | 46 | 333 | 1.0 | 5.0 | 0.00 | 0.00 | 0.00 | 87 | 1014.2 |
| 20260505060008 | 46 | 325 | 1.0 | 4.0 | 0.00 | 0.00 | 0.00 | 87 | 1014.1 |
| 20260505054507 | 46 | 360 | 0.0 | 2.0 | 0.00 | 0.00 | 0.00 | 87 | 1013.9 |
| 20260505053005 | 45 | 360 | 1.0 | 3.0 | 0.00 | 0.00 | 0.00 | 87 | 1013.9 |
| 20260505051502 | 45 | 360 | 1.0 | 5.0 | 0.00 | 0.00 | 0.00 | 86 | 1014.0 |
| 20260505050109 | 45 | 332 | 3.0 | 7.0 | 0.00 | 0.00 | 0.00 | 86 | 1014.1 |